createdAt,value
2023-04-28T00:05:55.790Z,5.97
2023-04-28T00:15:57.802Z,5.70
2023-04-28T00:26:01.144Z,4.57
2023-04-28T00:36:03.168Z,2.92
2023-04-28T00:46:06.566Z,2.63
2023-04-28T00:56:09.097Z,2.28
2023-04-28T01:06:12.856Z,2.50
2023-04-28T01:16:14.875Z,3.45
2023-04-28T01:26:18.220Z,2.28
2023-04-28T01:36:20.101Z,3.20
2023-04-28T01:46:23.412Z,3.08
2023-04-28T01:56:25.511Z,4.05
2023-04-28T02:06:28.794Z,4.28
2023-04-28T02:16:30.770Z,5.20
2023-04-28T02:26:35.497Z,7.35
2023-04-28T02:36:37.413Z,6.72
2023-04-28T02:46:40.720Z,6.80
2023-04-28T02:56:42.758Z,6.90
2023-04-28T03:06:46.105Z,6.78
2023-04-28T03:16:48.257Z,5.75
2023-04-28T03:26:51.708Z,5.85
2023-04-28T03:36:53.651Z,5.53
2023-04-28T03:46:56.968Z,10.52
2023-04-28T03:56:58.941Z,7.47
2023-04-28T04:07:02.755Z,7.00
2023-04-28T04:17:04.691Z,6.28
2023-04-28T04:27:08.102Z,5.97
2023-04-28T04:37:10.022Z,3.22
2023-04-28T04:47:13.312Z,3.47
2023-04-28T04:57:15.331Z,2.78
2023-04-28T05:07:18.631Z,4.07
2023-04-28T05:17:20.596Z,5.28
2023-04-28T05:27:23.905Z,1.80
2023-04-28T05:37:25.867Z,1.88
2023-04-28T05:47:29.292Z,1.27
2023-04-28T05:57:33.979Z,3.30
2023-04-28T06:07:45.422Z,1.00
2023-04-28T06:17:48.148Z,0.82
2023-04-28T06:27:51.471Z,1.80
2023-04-28T06:37:53.405Z,1.17
2023-04-28T06:47:56.792Z,0.68
2023-04-28T06:57:58.821Z,1.52
2023-04-28T07:08:02.277Z,3.78
2023-04-28T07:18:04.483Z,1.58
2023-04-28T07:28:08.339Z,0.82
2023-04-28T07:38:10.335Z,0.95
2023-04-28T07:48:13.756Z,1.08
2023-04-28T07:58:15.741Z,3.80
2023-04-28T08:08:19.119Z,0.50
2023-04-28T08:18:21.191Z,0.82
2023-04-28T08:28:24.716Z,1.00
2023-04-28T08:38:27.138Z,1.13
2023-04-28T08:48:38.897Z,1.45
2023-04-28T08:58:43.410Z,2.25
2023-04-28T09:08:46.738Z,1.25
2023-04-28T09:18:56.289Z,1.23
2023-04-28T09:29:13.400Z,3.70
2023-04-28T09:39:15.326Z,1.40
2023-04-28T09:49:18.641Z,1.60
2023-04-28T09:59:20.631Z,2.42
2023-04-28T10:09:24.911Z,1.10
2023-04-28T10:19:27.102Z,1.42
2023-04-28T10:29:31.591Z,0.40
2023-04-28T10:39:35.447Z,0.75
2023-04-28T10:50:08.302Z,1.27
2023-04-28T11:00:31.244Z,1.50
2023-04-28T11:11:06.340Z,0.75
2023-04-28T11:21:09.900Z,2.35
2023-04-28T11:31:12.419Z,2.45
2023-04-28T11:41:15.944Z,2.17
2023-04-28T11:51:35.526Z,0.88
2023-04-28T12:01:48.032Z,1.02
2023-04-28T12:11:56.410Z,1.23
2023-04-28T12:22:04.593Z,4.07
2023-04-28T12:32:07.853Z,2.53
2023-04-28T12:42:11.240Z,1.35
2023-04-28T12:52:13.323Z,3.45
2023-04-28T13:02:16.646Z,1.45
2023-04-28T13:12:18.569Z,1.20
2023-04-28T13:22:21.954Z,3.20
2023-04-28T13:32:23.866Z,3.40
2023-04-28T13:42:27.156Z,1.67
2023-04-28T13:52:29.086Z,1.80
2023-04-28T14:02:32.949Z,1.67
2023-04-28T14:12:35.010Z,2.42
2023-04-28T14:22:38.440Z,2.13
2023-04-28T14:32:40.433Z,0.70
2023-04-28T14:42:45.511Z,1.30
2023-04-28T14:52:47.507Z,1.58
2023-04-28T15:02:50.996Z,1.95
2023-04-28T15:12:53.001Z,2.10
2023-04-28T15:22:57.601Z,1.45
2023-04-28T15:32:59.823Z,1.67
2023-04-28T15:43:03.169Z,1.83
2023-04-28T15:53:05.228Z,1.33
2023-04-28T16:03:08.742Z,3.92
2023-04-28T16:13:10.834Z,1.83
2023-04-28T16:23:14.350Z,3.75
2023-04-28T16:33:16.403Z,1.77
2023-04-28T16:43:19.880Z,7.72
2023-04-28T16:53:21.905Z,5.30
2023-04-28T17:03:25.354Z,2.60
2023-04-28T17:13:51.745Z,2.55
2023-04-28T17:23:59.526Z,2.10
2023-04-28T17:34:01.473Z,2.92
2023-04-28T17:44:04.868Z,3.88
2023-04-28T17:54:06.928Z,6.68
2023-04-28T18:04:10.268Z,8.13
2023-04-28T18:14:12.288Z,8.02
2023-04-28T18:24:32.292Z,10.38
2023-04-28T18:34:34.217Z,9.10
2023-04-28T18:44:37.565Z,8.20
2023-04-28T18:54:39.572Z,11.02
2023-04-28T19:04:44.674Z,11.77
2023-04-28T19:15:18.601Z,15.50
2023-04-28T19:25:21.915Z,16.05
2023-04-28T19:35:24.052Z,18.92
2023-04-28T19:45:27.603Z,16.20
2023-04-28T19:55:29.624Z,21.27
2023-04-28T20:05:33.000Z,29.90
2023-04-28T20:15:53.214Z,25.70
2023-04-28T20:25:56.655Z,32.67
2023-04-28T20:36:00.013Z,34.40
2023-04-28T20:46:03.335Z,26.58
2023-04-28T20:56:05.590Z,19.30
2023-04-28T21:06:08.912Z,19.00
2023-04-28T21:16:15.964Z,17.63
2023-04-28T21:26:21.480Z,17.75
2023-04-28T21:36:23.521Z,15.77
2023-04-28T21:46:26.900Z,15.20
2023-04-28T21:56:29.074Z,22.58
2023-04-28T22:06:32.954Z,16.10
2023-04-28T22:16:34.908Z,24.38
2023-04-28T22:26:38.278Z,20.75
2023-04-28T22:36:40.275Z,23.27
2023-04-28T22:46:43.699Z,17.80
2023-04-28T22:56:45.615Z,18.48
2023-04-28T23:06:48.905Z,18.95
2023-04-28T23:16:50.825Z,18.55
2023-04-28T23:26:54.118Z,18.73
2023-04-28T23:36:56.050Z,17.25
2023-04-28T23:46:59.378Z,20.20
2023-04-28T23:57:01.306Z,20.48
